createdAt,value
2022-09-28T00:00:40.784Z,16.58
2022-09-28T00:03:13.897Z,16.56
2022-09-28T00:05:42.330Z,16.57
2022-09-28T00:08:23.500Z,16.58
2022-09-28T00:10:57.144Z,16.60
2022-09-28T00:13:25.836Z,16.55
2022-09-28T00:16:01.722Z,16.59
2022-09-28T00:18:35.094Z,16.59
2022-09-28T00:21:04.969Z,16.61
2022-09-28T00:23:34.157Z,16.64
2022-09-28T00:26:06.379Z,16.57
2022-09-28T00:28:34.815Z,16.49
2022-09-28T00:31:03.297Z,16.59
2022-09-28T00:33:38.059Z,16.59
2022-09-28T00:36:06.729Z,16.58
2022-09-28T00:38:35.304Z,16.60
2022-09-28T00:41:05.544Z,16.63
2022-09-28T00:43:34.151Z,16.61
2022-09-28T00:46:06.185Z,16.62
2022-09-28T00:48:39.654Z,16.58
2022-09-28T00:51:11.635Z,16.62
2022-09-28T00:53:44.710Z,16.59
2022-09-28T00:56:19.176Z,16.58
2022-09-28T00:58:51.256Z,16.56
2022-09-28T01:01:20.819Z,16.54
2022-09-28T01:03:50.953Z,16.62
2022-09-28T01:06:22.312Z,16.60
2022-09-28T01:08:54.385Z,16.65
2022-09-28T01:11:27.034Z,16.63
2022-09-28T01:14:00.750Z,16.62
2022-09-28T01:16:43.616Z,16.61
2022-09-28T01:20:11.444Z,16.58
2022-09-28T01:23:19.194Z,16.54
2022-09-28T01:25:58.669Z,16.57
2022-09-28T01:28:30.256Z,16.57
2022-09-28T01:31:07.545Z,16.57
2022-09-28T01:33:41.386Z,16.57
2022-09-28T01:36:14.619Z,16.62
2022-09-28T01:38:48.692Z,16.62
2022-09-28T01:41:21.111Z,16.58
2022-09-28T01:43:56.984Z,16.59
2022-09-28T01:46:30.545Z,16.57
2022-09-28T01:49:00.160Z,16.58
2022-09-28T01:51:43.229Z,16.57
2022-09-28T01:54:14.850Z,16.57
2022-09-28T01:56:56.369Z,16.58
2022-09-28T01:59:33.832Z,16.61
2022-09-28T02:02:07.634Z,16.62
2022-09-28T02:04:42.237Z,16.65
2022-09-28T02:07:15.671Z,16.56
2022-09-28T02:09:47.780Z,16.58
2022-09-28T02:12:21.839Z,16.57
2022-09-28T02:14:56.791Z,16.59
2022-09-28T02:17:25.179Z,16.59
2022-09-28T02:19:53.494Z,16.60
2022-09-28T02:22:31.782Z,16.61
2022-09-28T02:25:04.625Z,16.60
2022-09-28T02:27:37.665Z,16.57
2022-09-28T02:30:09.048Z,16.53
2022-09-28T02:32:42.634Z,16.41
2022-09-28T02:35:13.878Z,16.38
2022-09-28T02:37:42.685Z,16.33
2022-09-28T02:40:15.471Z,16.27
2022-09-28T02:42:55.347Z,16.22
2022-09-28T02:45:38.500Z,16.16
2022-09-28T02:48:27.184Z,16.10
2022-09-28T02:51:12.121Z,15.97
2022-09-28T02:54:13.448Z,15.83
2022-09-28T02:57:20.785Z,15.69
2022-09-28T02:59:57.153Z,15.57
2022-09-28T03:02:33.628Z,15.48
2022-09-28T03:05:12.494Z,15.47
2022-09-28T03:07:46.954Z,15.42
2022-09-28T03:10:18.478Z,15.39
2022-09-28T03:12:49.312Z,15.34
2022-09-28T03:15:25.236Z,15.31
2022-09-28T03:17:57.312Z,15.32
2022-09-28T03:20:26.501Z,15.33
2022-09-28T03:23:19.732Z,15.31
2022-09-28T03:25:43.319Z,15.32
2022-09-28T03:28:11.525Z,15.31
2022-09-28T03:30:43.534Z,15.28
2022-09-28T03:33:13.647Z,15.28
2022-09-28T03:35:42.056Z,15.27
2022-09-28T03:38:11.094Z,15.27
2022-09-28T03:40:40.087Z,15.26
2022-09-28T03:43:08.463Z,15.24
2022-09-28T03:45:37.037Z,15.25
2022-09-28T03:48:05.688Z,15.25
2022-09-28T03:50:36.985Z,15.23
2022-09-28T03:53:06.127Z,15.21
2022-09-28T03:55:34.445Z,15.22
2022-09-28T03:58:03.104Z,15.22
2022-09-28T04:00:31.353Z,15.25
2022-09-28T04:02:59.768Z,15.26
2022-09-28T04:05:28.784Z,15.25
2022-09-28T04:07:58.879Z,15.25
2022-09-28T04:10:28.042Z,15.27
2022-09-28T04:12:57.049Z,15.30
2022-09-28T04:15:25.627Z,15.34
2022-09-28T04:17:54.107Z,15.35
2022-09-28T04:20:45.560Z,15.38
2022-09-28T04:23:16.120Z,15.43
2022-09-28T04:25:48.768Z,15.46
2022-09-28T04:28:36.908Z,15.47
2022-09-28T04:31:05.318Z,15.46
2022-09-28T04:33:33.615Z,15.45
2022-09-28T04:36:02.307Z,15.39
2022-09-28T04:38:51.815Z,15.40
2022-09-28T04:41:22.937Z,15.35
2022-09-28T04:43:52.033Z,15.34
2022-09-28T04:46:21.374Z,15.27
2022-09-28T04:48:58.100Z,15.19
2022-09-28T04:51:39.367Z,15.18
2022-09-28T04:54:08.993Z,15.15
2022-09-28T04:56:39.640Z,15.12
2022-09-28T04:59:08.149Z,15.12
2022-09-28T05:01:37.849Z,15.11
2022-09-28T05:04:26.356Z,15.07
2022-09-28T05:07:05.930Z,15.13
2022-09-28T05:09:38.406Z,15.17
2022-09-28T05:12:07.514Z,15.18
2022-09-28T05:14:35.874Z,15.20
2022-09-28T05:17:05.794Z,15.21
2022-09-28T05:19:54.330Z,15.20
2022-09-28T05:22:22.762Z,15.20
2022-09-28T05:24:52.606Z,15.23
2022-09-28T05:27:20.896Z,15.18
2022-09-28T05:29:58.947Z,15.20
2022-09-28T05:32:46.018Z,15.19
2022-09-28T05:35:27.673Z,15.19
2022-09-28T05:37:56.137Z,15.16
2022-09-28T05:40:26.388Z,15.12
2022-09-28T05:42:54.760Z,15.10
2022-09-28T05:45:23.272Z,15.08
2022-09-28T05:47:52.074Z,15.09
2022-09-28T05:50:22.725Z,15.10
2022-09-28T05:53:04.520Z,15.12
2022-09-28T05:55:35.090Z,15.11
2022-09-28T05:58:08.063Z,15.15
2022-09-28T06:00:37.398Z,15.18
2022-09-28T06:03:09.156Z,15.20
2022-09-28T06:05:39.480Z,15.01
2022-09-28T06:08:10.497Z,15.16
2022-09-28T06:10:44.996Z,15.16
2022-09-28T06:13:17.000Z,15.19
2022-09-28T06:15:46.438Z,15.18
2022-09-28T06:18:36.927Z,15.14
2022-09-28T06:21:20.846Z,15.08
2022-09-28T06:24:23.178Z,15.01
2022-09-28T06:30:54.178Z,14.82
2022-09-28T06:33:35.950Z,14.75
2022-09-28T06:36:09.990Z,14.66
2022-09-28T06:38:42.041Z,14.60
2022-09-28T06:41:12.982Z,14.59
2022-09-28T06:43:49.509Z,14.56
2022-09-28T06:46:38.394Z,14.57
2022-09-28T06:49:30.359Z,14.57
2022-09-28T06:52:15.289Z,14.56
2022-09-28T06:55:06.587Z,14.56
2022-09-28T06:57:45.556Z,14.58
2022-09-28T07:00:18.580Z,14.62
2022-09-28T07:02:48.352Z,14.60
2022-09-28T07:05:48.276Z,14.56
2022-09-28T07:08:39.658Z,14.51
2022-09-28T07:11:46.749Z,14.52
2022-09-28T07:14:47.381Z,14.46
2022-09-28T07:17:18.437Z,14.41
2022-09-28T07:19:46.772Z,14.32
2022-09-28T07:22:18.948Z,14.32
2022-09-28T07:24:49.849Z,14.31
2022-09-28T07:27:41.541Z,14.30
2022-09-28T07:30:36.151Z,14.36
2022-09-28T07:33:18.452Z,14.42
2022-09-28T07:35:55.359Z,14.46
2022-09-28T07:38:30.352Z,14.55
2022-09-28T07:41:14.926Z,14.70
2022-09-28T07:43:49.904Z,14.94
2022-09-28T07:46:18.258Z,15.21
2022-09-28T07:48:58.334Z,15.36
2022-09-28T07:51:50.227Z,15.42
2022-09-28T07:54:31.456Z,15.42
2022-09-28T07:57:17.361Z,15.46
2022-09-28T07:59:53.722Z,15.61
2022-09-28T08:02:43.408Z,15.70
2022-09-28T08:05:15.792Z,15.82
2022-09-28T08:07:45.062Z,15.93
2022-09-28T08:10:14.229Z,16.10
2022-09-28T08:13:06.491Z,16.28
2022-09-28T08:15:59.638Z,16.39
2022-09-28T08:18:44.657Z,16.38
2022-09-28T08:21:31.547Z,16.38
2022-09-28T08:23:59.931Z,16.30
2022-09-28T08:26:29.216Z,16.24
2022-09-28T08:33:01.298Z,15.98
2022-09-28T08:36:11.327Z,15.83
2022-09-28T08:39:08.530Z,15.94
2022-09-28T08:42:15.865Z,15.90
2022-09-28T08:49:23.840Z,16.15
2022-09-28T08:52:41.345Z,16.52
2022-09-28T08:55:37.420Z,17.16
2022-09-28T08:58:45.647Z,17.58
2022-09-28T09:02:37.149Z,17.52
2022-09-28T09:10:20.088Z,16.99
2022-09-28T09:17:43.734Z,17.14
2022-09-28T09:38:23.268Z,18.88
2022-09-28T09:41:42.944Z,18.29
2022-09-28T09:45:14.619Z,17.83
2022-09-28T09:48:08.701Z,17.55
2022-09-28T09:51:20.816Z,17.52
2022-09-28T09:53:59.814Z,17.41
2022-09-28T09:56:44.554Z,17.26
2022-09-28T09:59:52.075Z,17.21
2022-09-28T10:02:48.417Z,17.24
2022-09-28T10:05:48.668Z,17.24
2022-09-28T10:08:26.353Z,17.37
2022-09-28T10:11:10.720Z,17.54
2022-09-28T10:14:01.098Z,17.45
2022-09-28T10:16:56.478Z,17.33
2022-09-28T10:19:46.138Z,17.32
2022-09-28T10:22:38.433Z,17.54
2022-09-28T10:25:14.166Z,17.91
2022-09-28T10:27:46.570Z,18.05
2022-09-28T10:30:19.559Z,17.97
2022-09-28T10:32:50.524Z,17.76
2022-09-28T10:35:25.049Z,17.72
2022-09-28T10:38:01.839Z,17.52
2022-09-28T10:40:54.475Z,17.22
2022-09-28T10:44:06.341Z,16.92
2022-09-28T10:47:11.433Z,16.67
2022-09-28T10:49:47.270Z,16.26
2022-09-28T10:52:39.898Z,15.85
2022-09-28T10:55:29.248Z,15.82
2022-09-28T10:57:58.443Z,15.89
2022-09-28T11:00:40.234Z,15.93
2022-09-28T11:03:22.144Z,16.00
2022-09-28T11:05:59.290Z,16.10
2022-09-28T11:08:31.634Z,16.34
2022-09-28T11:11:08.713Z,16.60
2022-09-28T11:13:46.115Z,16.91
2022-09-28T11:16:29.431Z,17.04
2022-09-28T11:18:59.316Z,17.12
2022-09-28T11:21:31.243Z,17.13
2022-09-28T11:24:09.474Z,17.03
2022-09-28T11:26:44.837Z,16.96
2022-09-28T11:29:35.021Z,17.19
2022-09-28T11:32:41.492Z,17.61
2022-09-28T11:35:30.525Z,17.94
2022-09-28T11:38:16.219Z,18.10
2022-09-28T11:41:38.631Z,18.24
2022-09-28T11:44:23.084Z,18.11
2022-09-28T11:47:20.101Z,18.30
2022-09-28T11:49:56.311Z,18.23
2022-09-28T11:52:32.501Z,18.08
2022-09-28T11:55:07.901Z,18.17
2022-09-28T11:57:39.819Z,18.54
2022-09-28T12:00:15.676Z,18.64
2022-09-28T12:02:56.426Z,18.72
2022-09-28T12:05:31.678Z,18.68
2022-09-28T12:08:05.882Z,18.81
2022-09-28T12:11:00.911Z,18.66
2022-09-28T12:13:51.643Z,18.81
2022-09-28T12:16:53.552Z,18.97
2022-09-28T12:19:22.687Z,18.91
2022-09-28T12:22:14.908Z,18.91
2022-09-28T12:24:52.873Z,19.04
2022-09-28T12:27:33.572Z,19.13
2022-09-28T12:30:06.505Z,18.99
2022-09-28T12:32:40.306Z,18.91
2022-09-28T12:35:14.689Z,18.84
2022-09-28T12:38:04.333Z,18.77
2022-09-28T12:40:49.536Z,18.69
2022-09-28T12:43:46.604Z,18.33
2022-09-28T12:46:38.260Z,18.24
2022-09-28T12:50:33.389Z,18.23
2022-09-28T12:52:31.586Z,18.31
2022-09-28T12:55:18.534Z,18.42
2022-09-28T12:58:08.616Z,18.40
2022-09-28T13:00:43.694Z,18.46
2022-09-28T13:03:35.614Z,18.58
2022-09-28T13:06:24.128Z,18.81
2022-09-28T13:09:31.647Z,18.76
2022-09-28T13:12:57.940Z,18.64
2022-09-28T13:16:05.014Z,18.51
2022-09-28T13:19:12.754Z,18.33
2022-09-28T13:21:53.608Z,18.21
2022-09-28T13:24:43.972Z,17.91
2022-09-28T13:27:25.330Z,17.63
2022-09-28T13:30:11.063Z,17.54
2022-09-28T13:32:48.674Z,17.66
2022-09-28T13:35:30.909Z,17.71
2022-09-28T13:38:53.667Z,17.76
2022-09-28T13:41:46.440Z,18.00
2022-09-28T13:44:47.235Z,18.36
2022-09-28T13:47:31.262Z,18.67
2022-09-28T13:50:20.890Z,18.87
2022-09-28T13:53:08.393Z,19.07
2022-09-28T13:55:46.012Z,19.25
2022-09-28T13:58:38.838Z,19.30
2022-09-28T14:01:21.206Z,19.19
2022-09-28T14:04:18.697Z,18.96
2022-09-28T14:07:24.187Z,19.06
2022-09-28T14:10:26.042Z,19.10
2022-09-28T14:12:57.676Z,18.75
2022-09-28T14:15:53.474Z,18.53
2022-09-28T14:18:46.058Z,18.62
2022-09-28T14:21:59.339Z,18.58
2022-09-28T14:25:03.088Z,18.48
2022-09-28T14:28:09.081Z,18.49
2022-09-28T14:30:49.646Z,18.57
2022-09-28T14:33:26.362Z,18.78
2022-09-28T14:35:58.410Z,18.80
2022-09-28T14:38:50.144Z,18.95
2022-09-28T14:41:34.318Z,19.17
2022-09-28T14:44:09.324Z,19.40
2022-09-28T14:46:48.329Z,19.53
2022-09-28T14:49:50.454Z,19.58
2022-09-28T14:52:39.099Z,19.43
2022-09-28T14:55:15.389Z,19.24
2022-09-28T14:57:54.058Z,18.86
2022-09-28T15:00:27.354Z,18.54
2022-09-28T15:03:02.024Z,18.24
2022-09-28T15:05:37.217Z,18.19
2022-09-28T15:08:08.072Z,17.98
2022-09-28T15:10:41.831Z,17.92
2022-09-28T15:13:21.976Z,17.83
2022-09-28T15:15:53.112Z,17.74
2022-09-28T15:18:58.452Z,17.67
2022-09-28T15:21:34.806Z,17.83
2022-09-28T15:24:53.193Z,17.67
2022-09-28T15:27:55.273Z,17.34
2022-09-28T15:30:57.801Z,16.99
2022-09-28T15:34:03.190Z,16.72
2022-09-28T15:36:46.515Z,16.74
2022-09-28T15:44:50.040Z,17.06
2022-09-28T16:00:47.346Z,17.38
2022-09-28T16:07:41.657Z,17.16
2022-09-28T16:11:20.255Z,17.01
2022-09-28T16:14:44.393Z,16.91
2022-09-28T16:17:32.625Z,16.81
2022-09-28T16:29:38.254Z,16.59
2022-09-28T16:56:11.103Z,15.90
2022-09-28T16:58:45.758Z,15.87
2022-09-28T17:01:15.010Z,15.85
2022-09-28T17:03:46.934Z,15.84
2022-09-28T17:06:16.772Z,15.76
2022-09-28T17:08:54.476Z,15.67
2022-09-28T17:11:44.644Z,15.52
2022-09-28T17:14:14.414Z,15.41
2022-09-28T17:19:34.599Z,15.42
2022-09-28T17:22:15.946Z,15.43
2022-09-28T17:25:01.856Z,15.32
2022-09-28T17:27:52.161Z,15.30
2022-09-28T17:31:48.813Z,15.28
2022-09-28T17:39:50.673Z,15.23
2022-09-28T17:47:49.181Z,15.31
2022-09-28T17:51:31.427Z,15.25
2022-09-28T17:54:35.596Z,15.28
2022-09-28T18:06:30.845Z,15.24
2022-09-28T18:25:33.158Z,14.98
2022-09-28T18:28:50.199Z,14.89
2022-09-28T18:36:20.379Z,14.73
2022-09-28T18:46:59.084Z,14.72
2022-09-28T19:24:07.481Z,14.54
2022-09-28T19:27:00.037Z,14.60
2022-09-28T19:29:31.315Z,14.61
2022-09-28T19:31:59.657Z,14.62
2022-09-28T22:50:53.763Z,12.72
2022-09-28T22:53:25.063Z,12.74
2022-09-28T22:56:06.084Z,12.74
2022-09-28T22:58:34.922Z,12.74
2022-09-28T23:01:16.239Z,12.74
2022-09-28T23:07:28.648Z,12.73
2022-09-28T23:11:38.148Z,12.71
2022-09-28T23:14:19.289Z,12.65
2022-09-28T23:17:23.481Z,12.68
2022-09-28T23:21:07.230Z,12.67
2022-09-28T23:23:20.430Z,12.62
2022-09-28T23:25:55.414Z,12.61
2022-09-28T23:28:27.635Z,12.60
2022-09-28T23:31:14.202Z,12.61
2022-09-28T23:33:42.945Z,12.67
2022-09-28T23:36:12.902Z,12.69
2022-09-28T23:39:08.383Z,12.61
2022-09-28T23:41:36.854Z,12.63
2022-09-28T23:44:20.375Z,12.64
2022-09-28T23:47:17.361Z,12.58
